Time;durP1;ratioP1;P1;durP2;ratioP2;P2;SDS_P1;SDS_P2;PMS_P1;PMS_P2;Temp;Humidity;BMP_temperature;BMP_pressure;BME280_temperature;BME280_humidity;BME280_pressure;Samples;Min_cycle;Max_cycle;Signal;HPM_P1;HPM_P2
2022/05/24 00:00:35;;;;;;;14.90;7.40;;;12.50;99.90;;;;;;5034100;28;20045;-72
2022/05/24 00:03:03;;;;;;;15.13;7.70;;;12.60;99.90;;;;;;5034815;28;20060;-72
2022/05/24 00:05:30;;;;;;;10.18;8.27;;;12.50;99.90;;;;;;5034893;28;20068;-73
2022/05/24 00:07:56;;;;;;;9.85;8.18;;;12.50;99.90;;;;;;5035023;28;20045;-71
2022/05/24 00:10:30;;;;;;;13.65;8.63;;;12.50;99.90;;;;;;5034807;28;20056;-72
2022/05/24 00:12:56;;;;;;;12.07;9.43;;;12.60;99.90;;;;;;5034955;28;20363;-71
2022/05/24 00:15:24;;;;;;;15.38;9.60;;;12.60;99.90;;;;;;5017882;28;20049;-72
2022/05/24 00:17:54;;;;;;;10.60;9.50;;;12.50;99.90;;;;;;5015204;28;20141;-72
2022/05/24 00:20:23;;;;;;;13.25;10.50;;;12.60;99.90;;;;;;5015154;28;20104;-70
2022/05/24 00:22:48;;;;;;;11.20;9.30;;;12.60;99.90;;;;;;5014865;28;20124;-70
2022/05/24 00:25:14;;;;;;;12.52;8.75;;;12.60;99.90;;;;;;5013899;28;20520;-70
2022/05/24 00:27:40;;;;;;;12.38;8.80;;;12.50;99.90;;;;;;5014881;28;20121;-73
2022/05/24 00:30:07;;;;;;;14.10;9.00;;;12.50;99.90;;;;;;5014907;28;20050;-71
2022/05/24 00:32:32;;;;;;;14.40;9.00;;;12.50;99.90;;;;;;5015538;28;20045;-72
2022/05/24 00:34:58;;;;;;;10.05;8.85;;;12.50;99.90;;;;;;5033882;28;20046;-71
2022/05/24 00:37:27;;;;;;;14.48;9.15;;;12.50;99.90;;;;;;5033912;28;20375;-72
2022/05/24 00:39:52;;;;;;;16.80;9.27;;;12.40;99.90;;;;;;5034705;28;20053;-72
2022/05/24 00:42:30;;;;;;;15.45;8.95;;;12.40;99.90;;;;;;5034606;28;20447;-71
2022/05/24 00:45:15;;;;;;;12.55;8.65;;;12.40;99.90;;;;;;5017025;28;20060;-72
2022/05/24 00:47:46;;;;;;;11.95;7.82;;;12.30;99.90;;;;;;5034354;28;20068;-72
2022/05/24 00:50:16;;;;;;;10.98;9.10;;;12.30;99.90;;;;;;5034549;28;20069;-72
2022/05/24 00:52:59;;;;;;;13.27;8.85;;;12.40;99.90;;;;;;5020022;28;20099;-70
2022/05/24 00:55:26;;;;;;;14.52;8.05;;;12.30;99.90;;;;;;5021179;28;20070;-70
2022/05/24 00:58:05;;;;;;;10.55;7.82;;;12.30;99.90;;;;;;5038454;28;20042;-70
2022/05/24 01:00:31;;;;;;;9.93;8.10;;;12.30;99.90;;;;;;5038059;28;20091;-72
2022/05/24 01:02:56;;;;;;;12.05;8.48;;;12.30;99.90;;;;;;5020854;28;20053;-72
2022/05/24 01:05:26;;;;;;;11.65;8.25;;;12.30;99.90;;;;;;5038311;28;20045;-73
2022/05/24 01:07:52;;;;;;;13.38;8.30;;;12.30;99.90;;;;;;5037069;28;20451;-71
2022/05/24 01:10:28;;;;;;;12.13;9.25;;;12.30;99.90;;;;;;5020670;28;20041;-72
2022/05/24 01:13:01;;;;;;;10.75;8.55;;;12.40;99.90;;;;;;5037760;28;20462;-72
2022/05/24 01:15:27;;;;;;;16.95;9.48;;;12.40;99.90;;;;;;5038036;28;20088;-72
2022/05/24 01:17:54;;;;;;;13.50;9.13;;;12.40;99.90;;;;;;5037983;28;20057;-71
2022/05/24 01:20:21;;;;;;;12.52;8.82;;;12.30;99.90;;;;;;5038024;28;20154;-70
2022/05/24 01:22:49;;;;;;;13.05;9.68;;;12.40;99.90;;;;;;5037828;28;20046;-72
2022/05/24 01:25:30;;;;;;;13.90;9.75;;;12.40;99.90;;;;;;5016219;28;20054;-70
2022/05/24 01:27:57;;;;;;;13.35;10.02;;;12.40;99.90;;;;;;5017852;28;20050;-71
2022/05/24 01:30:22;;;;;;;11.68;9.70;;;12.50;99.90;;;;;;5017950;28;20042;-70
2022/05/24 01:38:22;;;;;;;14.38;12.55;;;12.50;99.90;;;;;;5017585;28;20336;-72
2022/05/24 01:40:50;;;;;;;15.15;12.10;;;12.50;99.90;;;;;;5003506;28;20061;-72
2022/05/24 01:43:19;;;;;;;17.77;12.23;;;12.60;99.90;;;;;;5037356;28;20358;-72
2022/05/24 01:46:09;;;;;;;16.85;13.10;;;12.60;99.90;;;;;;5037126;28;20124;-71
2022/05/24 01:48:47;;;;;;;17.00;13.07;;;12.70;99.90;;;;;;5016658;28;20133;-70
2022/05/24 01:51:15;;;;;;;23.63;14.68;;;12.80;99.90;;;;;;5017425;28;20049;-72
2022/05/24 01:53:46;;;;;;;26.27;17.30;;;12.70;99.90;;;;;;5017454;28;20057;-71
2022/05/24 01:56:17;;;;;;;22.25;15.98;;;12.70;99.90;;;;;;5017406;28;20042;-72
2022/05/24 01:58:48;;;;;;;22.08;16.83;;;12.70;99.90;;;;;;5027305;28;20124;-70
2022/05/24 02:01:36;;;;;;;28.85;17.60;;;12.70;99.90;;;;;;5002532;28;20368;-70
2022/05/24 02:04:01;;;;;;;23.77;16.45;;;12.70;99.90;;;;;;5036280;28;20042;-72
2022/05/24 02:06:29;;;;;;;33.17;20.40;;;12.80;99.90;;;;;;5036926;28;20174;-70
2022/05/24 02:08:55;;;;;;;33.17;20.45;;;12.80;99.90;;;;;;5037398;28;20402;-70
2022/05/24 02:11:25;;;;;;;32.17;21.13;;;12.70;99.90;;;;;;5036807;28;20136;-71
2022/05/24 02:13:56;;;;;;;30.83;21.05;;;12.80;99.90;;;;;;5037038;28;20124;-71
2022/05/24 02:16:25;;;;;;;30.08;21.50;;;12.80;99.90;;;;;;5036051;28;20115;-71
2022/05/24 02:18:54;;;;;;;32.33;20.83;;;12.80;99.90;;;;;;5036894;28;20111;-72
2022/05/24 02:21:21;;;;;;;48.90;25.83;;;12.80;99.90;;;;;;5036958;28;20045;-72
2022/05/24 02:23:49;;;;;;;41.90;25.35;;;12.90;99.90;;;;;;5036710;28;20041;-71
2022/05/24 02:26:17;;;;;;;36.15;23.42;;;12.90;99.90;;;;;;5036166;28;20534;-71
2022/05/24 02:28:43;;;;;;;39.50;25.25;;;12.90;99.90;;;;;;5036659;28;20046;-72
2022/05/24 02:31:17;;;;;;;44.70;28.48;;;12.90;99.90;;;;;;5036460;28;20051;-71
2022/05/24 02:33:43;;;;;;;51.88;29.73;;;12.90;99.90;;;;;;5035881;28;20052;-70
2022/05/24 02:36:09;;;;;;;44.38;29.45;;;12.90;99.90;;;;;;5033105;28;20364;-73
2022/05/24 02:38:34;;;;;;;48.92;31.75;;;13.00;99.90;;;;;;5035804;28;20084;-70
2022/05/24 02:43:45;;;;;;;45.15;30.73;;;12.90;99.90;;;;;;5036485;28;20132;-72
2022/05/24 02:46:11;;;;;;;52.90;33.78;;;13.10;99.90;;;;;;5036505;28;20129;-71
2022/05/24 02:48:37;;;;;;;48.00;33.45;;;13.00;99.90;;;;;;5035044;28;20459;-71
2022/05/24 02:51:09;;;;;;;55.00;35.47;;;13.10;99.90;;;;;;5035937;28;20129;-70
2022/05/24 02:53:35;;;;;;;57.30;37.45;;;13.00;99.90;;;;;;5036415;28;20042;-72
2022/05/24 02:56:02;;;;;;;62.30;38.33;;;13.00;99.90;;;;;;5036188;28;20056;-72
2022/05/24 02:58:28;;;;;;;56.67;38.15;;;13.10;99.90;;;;;;5036042;28;20057;-73
2022/05/24 03:00:53;;;;;;;54.00;38.53;;;13.10;99.90;;;;;;5035870;28;20038;-72
2022/05/24 03:03:19;;;;;;;54.45;39.65;;;13.00;99.90;;;;;;5036103;28;20045;-72
2022/05/24 03:05:45;;;;;;;59.88;40.20;;;13.10;99.90;;;;;;5034807;28;20444;-71
2022/05/24 03:10:54;;;;;;;47.78;35.58;;;13.00;99.90;;;;;;5035658;28;20451;-73
2022/05/24 03:16:13;;;;;;;44.55;31.75;;;13.10;99.90;;;;;;5034537;28;20042;-73
2022/05/24 03:18:39;;;;;;;41.20;29.35;;;13.10;99.90;;;;;;5035857;28;20102;-72
2022/05/24 03:21:06;;;;;;;40.95;25.80;;;13.00;99.90;;;;;;5035642;28;20045;-73
2022/05/24 03:23:32;;;;;;;34.10;26.48;;;13.10;99.90;;;;;;5034541;28;20482;-72
2022/05/24 03:25:57;;;;;;;35.95;27.75;;;13.00;99.90;;;;;;5035670;28;20073;-71
2022/05/24 03:28:23;;;;;;;37.05;26.45;;;13.10;99.90;;;;;;5035366;28;20087;-72
2022/05/24 03:30:49;;;;;;;39.35;26.80;;;13.10;99.90;;;;;;5035318;28;20046;-71
2022/05/24 03:33:15;;;;;;;36.88;27.58;;;13.00;99.90;;;;;;5035330;28;20129;-70
2022/05/24 03:35:41;;;;;;;37.08;25.02;;;13.10;99.90;;;;;;5035644;28;20179;-72
2022/05/24 03:38:07;;;;;;;33.72;22.83;;;13.10;99.90;;;;;;5035003;28;20450;-71
2022/05/24 03:40:33;;;;;;;36.55;22.92;;;13.10;99.90;;;;;;5034208;28;20146;-71
2022/05/24 03:42:59;;;;;;;26.08;17.20;;;13.00;99.90;;;;;;5035124;28;20188;-70
2022/05/24 03:45:26;;;;;;;27.02;16.58;;;12.90;99.90;;;;;;5035086;28;20081;-71
2022/05/24 03:47:51;;;;;;;25.33;16.25;;;12.90;99.90;;;;;;5035181;28;20503;-71
2022/05/24 03:50:18;;;;;;;27.85;15.32;;;13.00;99.90;;;;;;5035183;28;20128;-70
2022/05/24 03:52:44;;;;;;;26.92;15.63;;;12.90;99.90;;;;;;5035394;28;20073;-72
2022/05/24 03:55:10;;;;;;;27.17;14.40;;;12.90;99.90;;;;;;5017645;28;20167;-70
2022/05/24 04:00:22;;;;;;;28.23;14.95;;;13.00;99.90;;;;;;5034744;28;20471;-72
2022/05/24 04:02:48;;;;;;;32.63;16.02;;;13.00;99.90;;;;;;5034880;28;20091;-71
2022/05/24 04:05:13;;;;;;;31.10;15.82;;;12.90;99.90;;;;;;5035636;28;20127;-72
2022/05/24 04:07:39;;;;;;;25.90;14.98;;;13.00;99.90;;;;;;5034793;28;20203;-72
2022/05/24 04:10:06;;;;;;;25.73;14.55;;;12.80;99.90;;;;;;5034655;28;20095;-72
2022/05/24 04:12:32;;;;;;;20.40;12.93;;;12.90;99.90;;;;;;5014540;28;20060;-71
2022/05/24 04:14:58;;;;;;;22.70;15.02;;;12.80;99.90;;;;;;5016747;28;20112;-72
2022/05/24 04:17:23;;;;;;;20.75;12.82;;;12.80;99.90;;;;;;5034800;28;20110;-72
2022/05/24 04:19:49;;;;;;;28.92;15.15;;;12.80;99.90;;;;;;5035020;28;20103;-72
2022/05/24 04:22:14;;;;;;;24.35;13.27;;;12.80;99.90;;;;;;5034633;28;20053;-72
2022/05/24 04:24:40;;;;;;;23.88;14.52;;;12.80;99.90;;;;;;5017478;28;20424;-70
2022/05/24 04:27:07;;;;;;;22.23;13.98;;;12.80;99.90;;;;;;5033952;28;20452;-71
2022/05/24 04:29:33;;;;;;;26.27;13.57;;;12.80;99.90;;;;;;5034413;28;20128;-71
2022/05/24 04:31:58;;;;;;;20.58;13.43;;;12.80;99.90;;;;;;5033858;28;20120;-72
2022/05/24 04:34:24;;;;;;;24.05;14.93;;;12.60;99.90;;;;;;5034227;28;20045;-72
2022/05/24 04:36:49;;;;;;;21.30;13.75;;;12.60;99.90;;;;;;5034731;28;20080;-70
2022/05/24 04:39:16;;;;;;;24.55;13.77;;;12.60;99.90;;;;;;5033960;28;20100;-70
2022/05/24 04:44:25;;;;;;;25.88;14.77;;;12.60;99.90;;;;;;5034513;28;20049;-70
2022/05/24 04:47:10;;;;;;;22.65;14.85;;;12.60;99.90;;;;;;5034720;28;20046;-71
2022/05/24 04:49:41;;;;;;;22.67;14.80;;;12.70;99.90;;;;;;5033608;28;20049;-73
2022/05/24 04:52:07;;;;;;;22.35;14.93;;;12.60;99.90;;;;;;5017055;28;20058;-72
2022/05/24 04:54:34;;;;;;;28.15;17.02;;;12.60;99.90;;;;;;5017055;28;20049;-71
2022/05/24 04:56:59;;;;;;;23.98;15.52;;;12.60;99.90;;;;;;5034238;28;20443;-71
2022/05/24 04:59:25;;;;;;;23.60;14.80;;;12.60;99.90;;;;;;5034598;28;20052;-73
2022/05/24 05:01:51;;;;;;;21.38;14.55;;;12.60;99.90;;;;;;5034478;28;20041;-73
2022/05/24 05:04:18;;;;;;;24.25;15.40;;;12.60;99.90;;;;;;5034396;28;20056;-72
2022/05/24 05:06:44;;;;;;;27.25;17.38;;;12.60;99.90;;;;;;5033302;28;20081;-70
2022/05/24 05:09:10;;;;;;;27.92;18.10;;;12.70;99.90;;;;;;5034470;28;20096;-72
2022/05/24 05:11:36;;;;;;;28.85;18.42;;;12.70;99.90;;;;;;5034255;28;20113;-72
2022/05/24 05:14:02;;;;;;;25.73;16.60;;;12.70;99.90;;;;;;5034291;28;20136;-74
2022/05/24 05:16:28;;;;;;;26.05;18.67;;;12.60;99.90;;;;;;5016509;28;20437;-74
2022/05/24 05:18:53;;;;;;;25.85;18.67;;;12.70;99.90;;;;;;5034011;28;20128;-72
2022/05/24 05:21:19;;;;;;;24.05;18.55;;;12.80;99.90;;;;;;5034397;28;20096;-72
2022/05/24 05:23:44;;;;;;;27.92;20.35;;;12.70;99.90;;;;;;5033258;28;20049;-71
2022/05/24 05:26:10;;;;;;;31.10;21.00;;;12.90;99.90;;;;;;5030804;28;20133;-70
2022/05/24 05:28:36;;;;;;;29.13;19.42;;;12.80;99.90;;;;;;5034129;28;20096;-71
2022/05/24 05:31:16;;;;;;;29.92;19.75;;;12.80;99.90;;;;;;5034248;28;20528;-73
2022/05/24 05:33:44;;;;;;;27.35;19.55;;;12.90;99.90;;;;;;5033657;28;20037;-71
2022/05/24 05:36:10;;;;;;;34.05;21.73;;;13.00;99.90;;;;;;5034092;28;20459;-69
2022/05/24 05:38:37;;;;;;;35.45;22.25;;;12.90;99.90;;;;;;5034348;28;20152;-71
2022/05/24 05:41:04;;;;;;;37.63;22.98;;;13.00;99.90;;;;;;5037415;28;20111;-74
2022/05/24 05:43:30;;;;;;;40.65;24.65;;;13.10;99.90;;;;;;5037354;28;20349;-71
2022/05/24 05:45:58;;;;;;;40.25;24.73;;;13.10;99.90;;;;;;5037426;28;20041;-72
2022/05/24 05:48:24;;;;;;;39.47;24.08;;;13.10;99.90;;;;;;5037406;28;20422;-70
2022/05/24 05:50:50;;;;;;;44.95;24.75;;;13.20;99.90;;;;;;5037583;28;20041;-73
2022/05/24 05:53:17;;;;;;;45.78;26.65;;;13.20;99.90;;;;;;5019701;28;20045;-73
2022/05/24 05:55:43;;;;;;;46.10;25.23;;;13.20;99.90;;;;;;5036460;28;20058;-73
2022/05/24 05:58:09;;;;;;;48.15;26.65;;;13.20;99.90;;;;;;5037201;28;20116;-73
2022/05/24 06:00:35;;;;;;;43.17;24.52;;;13.20;99.90;;;;;;5037195;28;20136;-72
2022/05/24 06:03:01;;;;;;;33.10;23.73;;;13.20;99.90;;;;;;5036769;28;20060;-74
2022/05/24 06:05:27;;;;;;;44.35;24.15;;;13.20;99.90;;;;;;5036845;28;20045;-73
2022/05/24 06:07:54;;;;;;;41.47;21.13;;;13.30;99.90;;;;;;5037034;28;20049;-70
2022/05/24 06:10:20;;;;;;;30.58;19.35;;;13.20;99.90;;;;;;5037223;28;20095;-72
2022/05/24 06:12:47;;;;;;;34.25;19.40;;;13.20;99.90;;;;;;5035607;28;20440;-70
2022/05/24 06:15:13;;;;;;;24.52;15.10;;;13.20;99.90;;;;;;5036661;28;20064;-70
2022/05/24 06:17:44;;;;;;;27.77;14.98;;;13.20;99.90;;;;;;5036557;28;20046;-71
2022/05/24 06:20:10;;;;;;;22.67;13.30;;;13.20;99.90;;;;;;5018907;28;20427;-70
2022/05/24 06:22:35;;;;;;;18.73;10.30;;;13.10;99.90;;;;;;5036729;28;20037;-72
2022/05/24 06:25:01;;;;;;;24.75;11.57;;;13.10;99.90;;;;;;5036627;28;20116;-72
2022/05/24 06:27:26;;;;;;;19.00;9.88;;;13.10;99.90;;;;;;5036205;28;20110;-71
2022/05/24 06:29:52;;;;;;;17.38;10.30;;;13.00;99.90;;;;;;5035612;28;20045;-71
2022/05/24 06:32:18;;;;;;;17.35;10.43;;;13.00;99.90;;;;;;5036541;28;20060;-71
2022/05/24 06:34:43;;;;;;;19.48;10.18;;;13.00;99.90;;;;;;5036289;28;20057;-73
2022/05/24 06:37:09;;;;;;;15.85;9.85;;;13.10;99.90;;;;;;5036455;28;20368;-73
2022/05/24 06:39:34;;;;;;;16.02;10.07;;;13.10;99.90;;;;;;5036516;28;20049;-72
2022/05/24 06:42:00;;;;;;;17.85;10.07;;;13.10;99.90;;;;;;5033080;28;20103;-72
2022/05/24 06:44:25;;;;;;;21.58;10.38;;;13.20;99.90;;;;;;5036163;28;20069;-73
2022/05/24 06:46:51;;;;;;;19.10;10.60;;;13.20;99.90;;;;;;5036050;28;20037;-71
2022/05/24 06:49:16;;;;;;;20.20;11.55;;;13.30;99.90;;;;;;5055651;28;20048;-72
2022/05/24 06:51:43;;;;;;;20.25;11.10;;;13.30;99.90;;;;;;5056001;28;20057;-72
2022/05/24 06:54:09;;;;;;;24.25;11.07;;;13.30;99.90;;;;;;5056172;28;20053;-72
2022/05/24 06:56:35;;;;;;;18.35;11.27;;;13.30;99.90;;;;;;5056054;28;20063;-72
2022/05/24 07:04:29;;;;;;;24.23;13.02;;;13.30;99.90;;;;;;5045570;28;20128;-73
2022/05/24 07:06:54;;;;;;;19.60;10.27;;;13.50;99.90;;;;;;5015592;28;20136;-71
2022/05/24 07:09:20;;;;;;;18.73;10.50;;;13.40;99.90;;;;;;5035875;28;20538;-73
2022/05/24 07:11:45;;;;;;;19.10;10.30;;;13.40;99.90;;;;;;5035579;28;20132;-73
2022/05/24 07:14:11;;;;;;;18.63;10.80;;;13.50;99.90;;;;;;5035806;28;20128;-73
2022/05/24 07:16:37;;;;;;;13.07;9.18;;;13.40;99.90;;;;;;5035531;28;20132;-73
2022/05/24 07:19:03;;;;;;;19.45;10.73;;;13.40;99.90;;;;;;5035757;28;20057;-72
2022/05/24 07:21:29;;;;;;;17.27;9.55;;;13.50;99.90;;;;;;5035017;28;20056;-73
2022/05/24 07:23:55;;;;;;;14.20;10.43;;;13.30;99.90;;;;;;5036630;28;20037;-73
2022/05/24 07:26:21;;;;;;;19.70;10.95;;;13.40;99.90;;;;;;5035209;28;20053;-73
2022/05/24 07:28:47;;;;;;;17.08;10.20;;;13.40;99.90;;;;;;5035408;28;20045;-72
2022/05/24 07:31:12;;;;;;;14.68;11.18;;;13.40;99.90;;;;;;5035623;28;20510;-74
2022/05/24 07:33:38;;;;;;;17.63;10.20;;;13.40;99.90;;;;;;5035544;28;20455;-71
2022/05/24 07:36:05;;;;;;;12.90;9.15;;;13.50;99.90;;;;;;5035648;28;20050;-73
2022/05/24 07:38:32;;;;;;;14.32;10.20;;;13.40;99.90;;;;;;5034731;28;20054;-72
2022/05/24 07:46:26;;;;;;;11.38;8.77;;;13.50;99.90;;;;;;5034912;28;20053;-73
2022/05/24 07:48:52;;;;;;;13.98;9.15;;;13.50;99.90;;;;;;5035434;28;20359;-71
2022/05/24 07:51:18;;;;;;;12.27;7.20;;;13.60;99.90;;;;;;5017462;28;20345;-72
2022/05/24 07:53:43;;;;;;;10.48;5.75;;;13.60;99.90;;;;;;5035083;28;20053;-72
2022/05/24 07:56:09;;;;;;;12.93;5.90;;;13.40;99.90;;;;;;5013749;28;20369;-72
2022/05/24 07:58:34;;;;;;;9.40;7.00;;;13.50;99.90;;;;;;4964995;28;20400;-72
2022/05/24 08:01:01;;;;;;;10.95;7.63;;;13.50;99.90;;;;;;5014169;28;20050;-72
2022/05/24 08:03:27;;;;;;;11.63;8.27;;;13.50;99.90;;;;;;5015314;28;20478;-74
2022/05/24 08:05:53;;;;;;;13.77;7.32;;;13.40;99.90;;;;;;5014810;28;20096;-73
2022/05/24 08:08:18;;;;;;;12.55;8.05;;;13.50;99.90;;;;;;5015507;28;20046;-74
2022/05/24 08:10:44;;;;;;;13.10;8.00;;;13.40;99.90;;;;;;5015357;28;20080;-72
2022/05/24 08:13:15;;;;;;;12.38;8.48;;;13.40;99.90;;;;;;5028931;28;20091;-73
2022/05/24 08:15:41;;;;;;;11.73;7.88;;;13.40;99.90;;;;;;5017743;28;20060;-72
2022/05/24 08:18:07;;;;;;;12.98;7.32;;;13.40;99.90;;;;;;5034817;28;20057;-72
2022/05/24 08:20:34;;;;;;;13.05;6.68;;;13.30;99.90;;;;;;5034747;28;20049;-72
2022/05/24 08:22:59;;;;;;;11.95;7.40;;;13.30;99.90;;;;;;5033783;28;20376;-73
2022/05/24 08:25:27;;;;;;;18.85;9.82;;;13.30;99.90;;;;;;5034745;28;20057;-71
2022/05/24 08:27:53;;;;;;;12.68;8.52;;;13.30;99.90;;;;;;5034710;28;20110;-71
2022/05/24 08:30:19;;;;;;;14.07;8.38;;;13.20;99.90;;;;;;4997010;28;20471;-72
2022/05/24 08:32:48;;;;;;;17.42;9.63;;;13.10;99.90;;;;;;5014460;28;20420;-71
2022/05/24 08:35:17;;;;;;;17.98;11.32;;;13.00;99.90;;;;;;5014680;28;20077;-71
2022/05/24 08:37:43;;;;;;;16.75;11.73;;;12.90;99.90;;;;;;5014608;28;20155;-71
2022/05/24 08:40:11;;;;;;;18.15;12.10;;;12.70;99.90;;;;;;5014853;28;20049;-71
2022/05/24 08:42:59;;;;;;;23.58;14.75;;;12.60;99.90;;;;;;5014956;28;20042;-71
2022/05/24 08:48:44;;;;;;;21.48;15.15;;;12.50;99.90;;;;;;5032166;28;20048;-72
2022/05/24 08:51:13;;;;;;;19.27;15.15;;;12.50;99.90;;;;;;5054411;28;20076;-70
2022/05/24 08:53:45;;;;;;;27.48;17.77;;;12.40;99.90;;;;;;5054608;28;20121;-72
2022/05/24 08:56:21;;;;;;;26.50;16.67;;;12.60;99.90;;;;;;5038262;28;20038;-72
2022/05/24 08:58:55;;;;;;;21.10;16.38;;;12.60;99.90;;;;;;5031977;28;20045;-72
2022/05/24 09:01:24;;;;;;;24.20;17.35;;;12.60;99.90;;;;;;5029927;28;20041;-71
2022/05/24 09:03:50;;;;;;;19.27;16.08;;;12.60;99.90;;;;;;5036095;28;20379;-72
2022/05/24 09:06:38;;;;;;;21.95;13.38;;;12.60;99.90;;;;;;5036763;28;20049;-72
2022/05/24 09:09:39;;;;;;;20.13;12.75;;;12.70;99.90;;;;;;5019779;28;20060;-72
2022/05/24 09:12:14;;;;;;;14.30;11.75;;;12.90;99.90;;;;;;5032767;28;20033;-72
2022/05/24 09:14:51;;;;;;;17.77;10.73;;;12.90;99.90;;;;;;5037792;28;20057;-71
2022/05/24 09:17:33;;;;;;;17.52;10.90;;;12.90;99.90;;;;;;5054264;28;20057;-72
2022/05/24 09:19:59;;;;;;;15.68;9.73;;;13.00;99.90;;;;;;5051594;28;20041;-72
2022/05/24 09:22:33;;;;;;;13.73;9.07;;;13.10;99.90;;;;;;5038134;28;20087;-72
2022/05/24 09:25:00;;;;;;;13.40;7.82;;;13.10;99.90;;;;;;5037697;28;20103;-72
2022/05/24 09:27:28;;;;;;;12.40;7.55;;;13.00;99.90;;;;;;5020115;28;20362;-72
2022/05/24 09:30:04;;;;;;;15.43;8.50;;;13.10;99.90;;;;;;5025658;28;20359;-72
2022/05/24 09:32:42;;;;;;;10.38;7.40;;;13.00;99.90;;;;;;5050561;28;20378;-71
2022/05/24 09:35:20;;;;;;;11.63;8.38;;;13.10;99.90;;;;;;4994831;28;20062;-72
2022/05/24 09:38:04;;;;;;;8.82;7.32;;;13.60;99.90;;;;;;5040271;28;20136;-72
2022/05/24 09:40:46;;;;;;;8.77;6.50;;;13.60;99.90;;;;;;5042155;28;20070;-74
2022/05/24 09:43:29;;;;;;;9.13;7.20;;;13.70;99.90;;;;;;5057443;28;20041;-73
2022/05/24 09:46:02;;;;;;;10.23;7.45;;;13.80;99.90;;;;;;5057160;28;20534;-73
2022/05/24 09:48:30;;;;;;;9.80;6.43;;;14.00;99.90;;;;;;5022674;28;20436;-72
2022/05/24 09:50:58;;;;;;;15.52;5.72;;;13.60;99.90;;;;;;5017504;28;20049;-71
2022/05/24 09:53:26;;;;;;;12.07;6.28;;;13.00;99.90;;;;;;5035018;28;20029;-72
2022/05/24 09:56:16;;;;;;;8.05;5.25;;;12.40;99.90;;;;;;5050646;28;20363;-72
2022/05/24 09:58:54;;;;;;;7.28;3.92;;;12.10;99.90;;;;;;5053390;28;20045;-72
2022/05/24 10:01:36;;;;;;;5.50;3.50;;;12.20;99.90;;;;;;5037158;28;20103;-73
2022/05/24 10:04:22;;;;;;;9.10;5.47;;;12.20;99.90;;;;;;5036885;28;20452;-72
2022/05/24 10:07:00;;;;;;;8.60;7.25;;;12.40;99.90;;;;;;5037019;28;20140;-73
2022/05/24 10:09:40;;;;;;;11.85;8.55;;;12.50;99.90;;;;;;5036891;28;20088;-72
2022/05/24 10:12:44;;;;;;;12.40;9.18;;;12.80;99.90;;;;;;5036527;28;20132;-72
2022/05/24 10:15:34;;;;;;;14.02;10.02;;;12.80;99.90;;;;;;5006546;28;20053;-72
2022/05/24 10:18:21;;;;;;;13.18;9.65;;;12.90;99.90;;;;;;5036849;28;20037;-73
2022/05/24 10:20:56;;;;;;;13.40;10.23;;;12.90;99.90;;;;;;5036514;28;20037;-72
2022/05/24 10:23:44;;;;;;;16.92;11.48;;;12.90;99.90;;;;;;5036924;28;20460;-73
2022/05/24 10:26:56;;;;;;;16.30;11.77;;;12.80;99.90;;;;;;5036314;28;20455;-72
2022/05/24 10:29:43;;;;;;;21.40;13.32;;;12.80;99.90;;;;;;5033552;28;20053;-72
2022/05/24 10:38:54;;;;;;;4.00;2.13;;;12.60;99.90;;;;;;4982404;28;20150;-73
2022/05/24 10:41:48;;;;;;;4.25;2.08;;;12.70;99.90;;;;;;4986240;28;20145;-72
2022/05/24 10:44:22;;;;;;;3.88;2.75;;;12.70;99.90;;;;;;5039845;28;20102;-73
2022/05/24 10:47:05;;;;;;;4.10;2.90;;;13.00;99.90;;;;;;5035441;28;20042;-74
2022/05/24 10:49:42;;;;;;;7.72;3.58;;;13.10;99.90;;;;;;5015972;28;20089;-75
2022/05/24 10:52:52;;;;;;;7.40;3.78;;;13.30;99.90;;;;;;5035012;28;20049;-73
2022/05/24 10:55:19;;;;;;;5.63;3.85;;;13.50;99.90;;;;;;5022785;28;20049;-73
2022/05/24 10:58:03;;;;;;;4.97;3.40;;;13.50;99.90;;;;;;5035998;28;20045;-74
2022/05/24 11:00:41;;;;;;;6.40;3.10;;;13.50;99.90;;;;;;5036412;28;20049;-73
2022/05/24 11:03:09;;;;;;;9.68;3.08;;;13.50;99.90;;;;;;5014759;28;20072;-75
2022/05/24 11:05:41;;;;;;;5.47;2.78;;;13.50;99.90;;;;;;5016348;28;20068;-73
2022/05/24 11:08:34;;;;;;;8.63;2.75;;;13.30;99.90;;;;;;5016403;28;20137;-73
2022/05/24 11:11:34;;;;;;;6.38;2.50;;;13.10;99.90;;;;;;5016019;28;20172;-72
2022/05/24 11:14:33;;;;;;;5.10;2.78;;;12.70;99.90;;;;;;5023275;28;20053;-73
2022/05/24 11:17:00;;;;;;;10.50;4.15;;;12.50;99.90;;;;;;5044613;28;20049;-72
2022/05/24 11:19:27;;;;;;;8.98;3.85;;;12.50;99.90;;;;;;5048583;28;20114;-73
2022/05/24 11:22:01;;;;;;;9.80;5.20;;;12.60;99.90;;;;;;5055575;28;20049;-73
2022/05/24 11:24:55;;;;;;;5.43;4.35;;;12.80;99.90;;;;;;5055548;28;20049;-72
2022/05/24 11:27:31;;;;;;;7.57;4.57;;;12.90;99.90;;;;;;4994575;28;20049;-73
2022/05/24 11:30:10;;;;;;;7.70;3.80;;;13.20;99.90;;;;;;5055439;28;20037;-73
2022/05/24 11:32:44;;;;;;;7.28;3.42;;;13.20;99.90;;;;;;5043468;28;20490;-72
2022/05/24 11:35:17;;;;;;;9.77;3.20;;;13.30;99.90;;;;;;5035436;28;20376;-75
2022/05/24 11:37:44;;;;;;;6.70;2.60;;;13.60;99.90;;;;;;5033850;28;20363;-72
2022/05/24 11:40:38;;;;;;;6.82;2.58;;;13.50;99.90;;;;;;5035380;28;20116;-74
2022/05/24 11:43:10;;;;;;;6.95;2.60;;;13.40;99.90;;;;;;5034818;28;20463;-75
2022/05/24 11:46:33;;;;;;;12.68;2.97;;;13.30;99.90;;;;;;5035203;28;20140;-74
2022/05/24 11:49:00;;;;;;;6.15;3.33;;;13.30;99.90;;;;;;4954967;29;20493;-74
2022/05/24 11:51:30;;;;;;;5.97;3.20;;;13.20;99.90;;;;;;4954952;29;20058;-74
2022/05/24 11:53:55;;;;;;;11.40;3.92;;;13.20;99.90;;;;;;5000642;28;20128;-74
2022/05/24 11:56:24;;;;;;;9.57;3.92;;;13.20;99.90;;;;;;5035264;28;20566;-73
2022/05/24 11:58:53;;;;;;;7.97;4.13;;;13.20;99.90;;;;;;5034991;28;20049;-74
2022/05/24 12:01:19;;;;;;;11.07;4.05;;;13.30;99.90;;;;;;5034979;28;20046;-74
2022/05/24 12:09:59;;;;;;;9.93;3.43;;;13.80;99.90;;;;;;5033491;28;20064;-73
2022/05/24 12:12:37;;;;;;;7.63;2.00;;;14.20;99.90;;;;;;5038502;28;20779;-74
2022/05/24 12:15:12;;;;;;;5.53;1.80;;;14.30;99.90;;;;;;5033155;28;20049;-74
2022/05/24 12:17:38;;;;;;;4.05;1.65;;;14.10;99.90;;;;;;5034751;28;20045;-74
2022/05/24 12:20:24;;;;;;;4.68;2.20;;;13.90;99.90;;;;;;5039895;28;20037;-74
2022/05/24 12:23:13;;;;;;;6.03;2.83;;;13.60;99.90;;;;;;5054602;28;20060;-75
2022/05/24 12:25:52;;;;;;;7.60;3.97;;;13.50;99.90;;;;;;5054545;28;20049;-74
2022/05/24 12:28:25;;;;;;;5.30;2.97;;;13.50;99.90;;;;;;5020028;28;20048;-73
2022/05/24 12:30:51;;;;;;;7.18;3.03;;;13.30;99.90;;;;;;5034494;28;20049;-74
2022/05/24 12:33:35;;;;;;;7.70;3.13;;;13.30;99.90;;;;;;5016338;28;20057;-73
2022/05/24 12:36:06;;;;;;;9.77;3.58;;;13.40;99.90;;;;;;5052020;28;20053;-75
2022/05/24 12:38:37;;;;;;;4.90;2.97;;;13.90;99.90;;;;;;5032320;28;20057;-75
2022/05/24 12:41:21;;;;;;;11.68;3.50;;;14.10;99.90;;;;;;5034817;28;20072;-75
2022/05/24 12:43:53;;;;;;;10.30;3.73;;;14.40;99.90;;;;;;5033739;28;20321;-74
2022/05/24 12:46:19;;;;;;;4.97;2.58;;;14.40;99.90;;;;;;5034490;28;20048;-73
2022/05/24 12:48:47;;;;;;;7.13;2.92;;;14.20;99.90;;;;;;5049565;28;20363;-75
2022/05/24 12:51:18;;;;;;;7.85;3.50;;;14.10;99.90;;;;;;5038369;28;20049;-73
2022/05/24 12:53:44;;;;;;;6.35;3.35;;;14.00;99.90;;;;;;5037222;28;20048;-76
2022/05/24 12:56:19;;;;;;;6.72;4.25;;;13.80;99.90;;;;;;5038442;28;20426;-75
2022/05/24 12:58:49;;;;;;;6.35;3.63;;;13.80;99.90;;;;;;5035388;28;20046;-76
2022/05/24 13:01:25;;;;;;;6.90;3.40;;;13.90;99.90;;;;;;5037659;28;20046;-74
2022/05/24 13:04:15;;;;;;;8.50;3.40;;;14.20;99.90;;;;;;5038322;28;20422;-74
2022/05/24 13:06:43;;;;;;;7.05;3.10;;;14.30;99.90;;;;;;5038338;28;20037;-74
2022/05/24 13:09:15;;;;;;;5.70;2.88;;;14.50;99.90;;;;;;5038369;28;20049;-74
2022/05/24 13:11:43;;;;;;;7.97;3.10;;;14.60;99.90;;;;;;5037738;28;20064;-74
2022/05/24 13:14:14;;;;;;;4.13;2.78;;;14.60;99.90;;;;;;5018700;28;20341;-76
2022/05/24 13:16:40;;;;;;;10.82;3.55;;;14.70;99.90;;;;;;5018024;28;20445;-74
2022/05/24 13:19:06;;;;;;;5.63;2.75;;;15.00;99.90;;;;;;5011314;28;20054;-73
2022/05/24 13:21:34;;;;;;;5.45;2.75;;;15.10;99.90;;;;;;5018306;28;20120;-74
2022/05/24 13:24:15;;;;;;;6.95;2.67;;;15.10;99.90;;;;;;5000945;28;20085;-75
2022/05/24 13:27:02;;;;;;;5.38;2.83;;;15.30;99.90;;;;;;5031731;28;20041;-74
2022/05/24 13:29:29;;;;;;;11.25;2.65;;;15.00;99.90;;;;;;5030045;28;20112;-77
2022/05/24 13:34:55;;;;;;;8.45;4.05;;;16.00;99.90;;;;;;5050030;28;20053;-73
2022/05/24 13:37:25;;;;;;;8.55;3.13;;;15.80;99.90;;;;;;5037258;28;20053;-75
2022/05/24 13:39:56;;;;;;;9.40;3.03;;;16.20;99.90;;;;;;5020163;28;20063;-75